Time;durP1;ratioP1;P1;durP2;ratioP2;P2;SDS_P1;SDS_P2;PMS_P1;PMS_P2;Temp;Humidity;BMP_temperature;BMP_pressure;BME280_temperature;BME280_humidity;BME280_pressure;Samples;Min_cycle;Max_cycle;Signal;HPM_P1;HPM_P2
2021/05/06 04:55:11;;;;;;;4.18;3.67;;;6.60;99.90;;;;;;4912639;29;20055;-75
2021/05/06 04:58:00;;;;;;;8.23;3.65;;;6.60;99.90;;;;;;4914504;29;20523;-74
2021/05/06 05:05:55;;;;;;;5.53;3.53;;;6.70;99.90;;;;;;4923999;23;20075;-67
2021/05/06 05:08:23;;;;;;;;;;;6.70;99.90;;;;;;4912315;29;20104;-67
2021/05/06 05:11:06;;;;;;;7.72;3.75;;;6.80;99.90;;;;;;4912155;29;20889;-67
2021/05/06 05:13:43;;;;;;;6.78;2.90;;;7.00;99.90;;;;;;4913112;29;20143;-69
2021/05/06 05:18:59;;;;;;;5.30;3.00;;;7.00;99.90;;;;;;4912953;29;20119;-69
2021/05/06 05:24:14;;;;;;;8.27;3.08;;;7.00;99.90;;;;;;4913746;29;20091;-68
2021/05/06 05:26:40;;;;;;;6.28;3.35;;;7.00;99.90;;;;;;4913591;29;20051;-68
2021/05/06 05:29:07;;;;;;;6.78;3.45;;;7.10;99.90;;;;;;4912990;29;20408;-68
2021/05/06 05:31:33;;;;;;;4.28;2.83;;;7.10;99.90;;;;;;4913145;29;20044;-68
2021/05/06 05:34:04;;;;;;;5.25;3.25;;;7.20;99.90;;;;;;4912590;29;20595;-68
2021/05/06 05:36:32;;;;;;;7.05;3.65;;;7.40;99.90;;;;;;4912237;29;20432;-68
2021/05/06 05:39:06;;;;;;;4.28;3.03;;;7.50;99.90;;;;;;4911180;29;20354;-67
2021/05/06 05:55:23;;;;;;;6.28;2.72;;;7.70;99.90;;;;;;4874606;29;20143;-68
2021/05/06 05:57:52;;;;;;;5.18;2.60;;;7.60;99.90;;;;;;4910897;29;20052;-69
2021/05/06 06:00:19;;;;;;;9.52;2.53;;;7.70;99.90;;;;;;4907931;29;20537;-66
2021/05/06 06:02:46;;;;;;;11.45;2.55;;;7.70;99.90;;;;;;4906799;29;20071;-67
2021/05/06 06:05:13;;;;;;;;;;;7.80;99.90;;;;;;4914691;29;20055;-69
2021/05/06 06:07:40;;;;;;;8.43;2.50;;;7.90;99.90;;;;;;4926715;29;19935;-68
2021/05/06 06:10:07;;;;;;;3.00;2.20;;;7.80;99.90;;;;;;4913079;29;20044;-66
2021/05/06 06:12:34;;;;;;;7.07;2.80;;;7.80;99.90;;;;;;4911306;29;20072;-67
2021/05/06 06:15:03;;;;;;;6.78;2.70;;;7.70;99.90;;;;;;4921495;29;20051;-69
2021/05/06 06:17:35;;;;;;;6.85;2.30;;;7.80;99.90;;;;;;4926509;29;20116;-67
2021/05/06 06:20:02;;;;;;;6.85;2.28;;;7.80;99.90;;;;;;4919608;29;20103;-67
2021/05/06 06:22:31;;;;;;;6.85;2.42;;;7.80;99.90;;;;;;4922381;29;20052;-68
2021/05/06 06:24:57;;;;;;;5.82;2.42;;;7.80;99.90;;;;;;4925751;29;20588;-66
2021/05/06 06:27:24;;;;;;;;;;;7.90;99.90;;;;;;4925939;29;20052;-68
2021/05/06 06:29:51;;;;;;;4.85;2.22;;;7.80;99.90;;;;;;4919029;29;20014;-66
2021/05/06 06:32:18;;;;;;;;;;;7.90;99.90;;;;;;4917190;29;20115;-67
2021/05/06 06:34:44;;;;;;;8.60;2.60;;;7.80;99.90;;;;;;4917936;29;19927;-68
2021/05/06 06:37:11;;;;;;;7.50;3.53;;;7.80;99.90;;;;;;4914699;29;20369;-66
2021/05/06 06:39:39;;;;;;;4.15;2.78;;;7.90;99.90;;;;;;4914197;29;20147;-67
2021/05/06 06:42:08;;;;;;;7.65;3.60;;;7.90;99.90;;;;;;4914298;29;20496;-66
2021/05/06 06:44:36;;;;;;;5.72;3.67;;;7.70;99.90;;;;;;4910355;29;20496;-66
2021/05/06 06:47:03;;;;;;;4.28;3.33;;;7.70;99.90;;;;;;4904659;29;20044;-68
2021/05/06 06:49:32;;;;;;;11.10;3.45;;;7.70;99.90;;;;;;4913288;29;20048;-68
2021/05/06 06:51:59;;;;;;;7.18;3.72;;;7.70;99.90;;;;;;4914008;29;20051;-69
2021/05/06 06:54:26;;;;;;;9.35;4.00;;;7.90;99.90;;;;;;4914737;29;20111;-67
2021/05/06 06:56:53;;;;;;;9.15;3.83;;;8.10;99.90;;;;;;4914442;29;20056;-67
2021/05/06 06:59:20;;;;;;;5.82;3.58;;;8.10;99.90;;;;;;4914187;29;20094;-66
2021/05/06 07:01:46;;;;;;;5.72;3.60;;;8.20;99.90;;;;;;4914200;29;20056;-68
2021/05/06 07:04:13;;;;;;;5.13;3.05;;;8.30;99.90;;;;;;4914427;29;20476;-68
2021/05/06 07:06:40;;;;;;;4.30;2.95;;;8.40;99.90;;;;;;4914143;29;20059;-67
2021/05/06 07:09:10;;;;;;;5.93;3.70;;;8.80;99.90;;;;;;4913695;29;20048;-67
2021/05/06 07:11:36;;;;;;;7.43;3.63;;;9.10;99.90;;;;;;4913658;29;20048;-68
2021/05/06 07:14:03;;;;;;;;;;;9.60;99.90;;;;;;4914589;29;20080;-69
2021/05/06 07:16:30;;;;;;;8.18;2.75;;;10.40;99.90;;;;;;4912966;29;19923;-67
2021/05/06 07:18:57;;;;;;;4.63;2.40;;;10.30;99.90;;;;;;4914022;29;20085;-68
2021/05/06 07:21:24;;;;;;;3.65;1.92;;;10.40;99.90;;;;;;4906397;29;20048;-68
2021/05/06 07:23:53;;;;;;;4.72;1.98;;;10.90;99.90;;;;;;4914072;29;20059;-66
2021/05/06 07:26:20;;;;;;;4.32;2.00;;;10.50;99.90;;;;;;4913533;29;20036;-66
2021/05/06 07:28:49;;;;;;;;;;;10.50;99.90;;;;;;4913503;29;20044;-66
2021/05/06 07:31:15;;;;;;;5.22;2.10;;;10.40;99.90;;;;;;4910373;29;19923;-67
2021/05/06 07:33:43;;;;;;;9.55;2.50;;;10.20;99.90;;;;;;4913709;29;20590;-67
2021/05/06 07:36:11;;;;;;;7.25;3.10;;;10.30;99.90;;;;;;4913209;29;20415;-67
2021/05/06 07:38:38;;;;;;;4.57;2.80;;;9.90;99.90;;;;;;4912119;29;20048;-67
2021/05/06 07:41:07;;;;;;;7.95;3.00;;;9.70;99.90;;;;;;4912087;29;20051;-68
2021/05/06 07:43:34;;;;;;;7.45;2.55;;;9.50;99.90;;;;;;4912747;29;20037;-67
2021/05/06 07:46:01;;;;;;;8.18;2.53;;;9.80;99.90;;;;;;4913128;29;20131;-67
2021/05/06 07:48:28;;;;;;;8.93;2.90;;;9.90;99.90;;;;;;4911612;29;20048;-67
2021/05/06 07:50:54;;;;;;;7.93;2.80;;;9.80;99.90;;;;;;4912874;29;20056;-66
2021/05/06 07:53:24;;;;;;;4.53;2.60;;;10.00;99.90;;;;;;4911701;29;20076;-67
2021/05/06 07:55:52;;;;;;;9.88;2.83;;;9.50;99.90;;;;;;4913220;29;20036;-67
2021/05/06 07:58:20;;;;;;;4.05;2.15;;;9.80;99.90;;;;;;4913125;29;20163;-68
2021/05/06 08:00:47;;;;;;;6.90;2.25;;;9.90;99.90;;;;;;4910352;29;20445;-67
2021/05/06 08:03:14;;;;;;;6.45;2.08;;;10.30;99.90;;;;;;4913482;29;20043;-68
2021/05/06 08:05:40;;;;;;;7.25;1.83;;;10.50;99.90;;;;;;4911806;29;20056;-68
2021/05/06 08:08:07;;;;;;;7.05;1.90;;;10.50;99.90;;;;;;4913246;29;20048;-65
2021/05/06 08:10:34;;;;;;;;;;;10.40;99.90;;;;;;4911150;29;20044;-67
2021/05/06 08:13:02;;;;;;;3.83;1.60;;;10.60;99.90;;;;;;4913321;29;20029;-66
2021/05/06 08:15:30;;;;;;;8.27;4.50;;;10.30;99.90;;;;;;4913530;29;20282;-67
2021/05/06 08:17:57;;;;;;;6.85;2.55;;;10.50;99.90;;;;;;4912904;29;20047;-67
2021/05/06 08:20:25;;;;;;;6.22;3.13;;;10.70;99.90;;;;;;4903113;29;20051;-66
2021/05/06 08:22:51;;;;;;;8.02;4.00;;;10.80;99.90;;;;;;4909678;29;20043;-66
2021/05/06 08:25:19;;;;;;;4.82;2.00;;;10.70;99.90;;;;;;4913103;29;20059;-67
2021/05/06 08:27:46;;;;;;;6.90;1.95;;;10.40;99.90;;;;;;4913054;29;20087;-66
2021/05/06 08:30:14;;;;;;;6.30;2.90;;;10.30;99.90;;;;;;4912563;29;20464;-66
2021/05/06 08:32:42;;;;;;;3.47;2.30;;;10.50;99.90;;;;;;4912188;29;20040;-67
2021/05/06 08:35:10;;;;;;;5.60;2.40;;;10.30;99.90;;;;;;4913044;29;20107;-66
2021/05/06 08:37:37;;;;;;;6.80;2.00;;;10.30;99.90;;;;;;4912145;29;20044;-67
2021/05/06 08:40:05;;;;;;;7.85;2.00;;;10.30;99.90;;;;;;4911799;29;20054;-66
2021/05/06 08:42:32;;;;;;;7.45;1.70;;;11.20;99.90;;;;;;4912021;29;20099;-65
2021/05/06 08:44:59;;;;;;;5.78;1.90;;;12.00;99.90;;;;;;4912717;29;20044;-65
2021/05/06 08:47:26;;;;;;;4.38;2.13;;;11.90;99.90;;;;;;4912670;29;20064;-66
2021/05/06 08:49:53;;;;;;;3.80;1.45;;;11.70;99.90;;;;;;4911832;29;20052;-66
2021/05/06 08:52:20;;;;;;;3.85;1.48;;;11.60;99.90;;;;;;4900064;29;20056;-65
2021/05/06 08:54:47;;;;;;;;;;;11.80;99.90;;;;;;4910449;29;20120;-66
2021/05/06 08:57:14;;;;;;;7.43;1.45;;;11.70;99.90;;;;;;4912320;29;20017;-67
2021/05/06 08:59:41;;;;;;;7.22;1.70;;;11.80;99.90;;;;;;4912053;29;20537;-66
2021/05/06 09:02:08;;;;;;;2.63;1.50;;;11.40;99.90;;;;;;4911481;29;20052;-67
2021/05/06 09:04:35;;;;;;;3.40;1.02;;;11.90;99.90;;;;;;4909726;29;20040;-67
2021/05/06 09:07:04;;;;;;;3.30;1.40;;;12.10;99.90;;;;;;4909878;29;20056;-68
2021/05/06 09:09:32;;;;;;;4.43;1.00;;;12.70;99.90;;;;;;4911688;29;20052;-68
2021/05/06 09:12:00;;;;;;;6.25;1.60;;;13.40;99.90;;;;;;4916495;29;20043;-69
2021/05/06 09:14:41;;;;;;;3.70;1.25;;;13.50;99.90;;;;;;4916661;29;20047;-67
2021/05/06 09:17:25;;;;;;;4.07;1.50;;;13.30;99.90;;;;;;4922182;29;20115;-67
2021/05/06 09:19:57;;;;;;;3.92;1.30;;;12.70;99.90;;;;;;4914657;29;20040;-67
2021/05/06 09:22:35;;;;;;;13.38;4.13;;;12.00;99.90;;;;;;4911399;29;20047;-67
2021/05/06 09:25:22;;;;;;;10.27;1.38;;;11.70;99.90;;;;;;4906234;29;20225;-67
2021/05/06 09:28:03;;;;;;;6.55;1.48;;;11.70;99.90;;;;;;4908197;29;20487;-67
2021/05/06 09:30:29;;;;;;;5.88;1.60;;;11.80;99.90;;;;;;4904456;29;20142;-68
2021/05/06 09:33:00;;;;;;;2.55;1.52;;;11.80;99.90;;;;;;4910230;29;20048;-67
2021/05/06 09:35:27;;;;;;;3.10;1.25;;;11.50;99.90;;;;;;4910657;29;20062;-67
2021/05/06 09:37:54;;;;;;;4.78;1.35;;;11.40;99.90;;;;;;4908928;29;20542;-67
2021/05/06 09:40:21;;;;;;;4.03;1.70;;;11.30;99.90;;;;;;4916136;29;20473;-66
2021/05/06 09:42:49;;;;;;;;;;;11.20;99.90;;;;;;4907661;29;20052;-67
2021/05/06 09:45:21;;;;;;;;;;;10.80;99.90;;;;;;4914012;29;20021;-66
2021/05/06 09:48:09;;;;;;;3.75;2.25;;;10.50;99.90;;;;;;4909513;29;19923;-67
2021/05/06 09:50:36;;;;;;;4.18;2.63;;;10.30;99.90;;;;;;4906004;29;20044;-67
2021/05/06 09:53:12;;;;;;;6.15;3.17;;;10.30;99.90;;;;;;4911098;29;20056;-67
2021/05/06 09:55:39;;;;;;;4.68;2.80;;;10.30;99.90;;;;;;4911083;29;20050;-67
2021/05/06 09:58:57;;;;;;;8.32;3.17;;;10.40;99.90;;;;;;4916563;29;20449;-67
2021/05/06 10:01:35;;;;;;;5.05;3.33;;;10.50;99.90;;;;;;4897983;29;20126;-66
2021/05/06 10:04:18;;;;;;;5.78;2.97;;;10.70;99.90;;;;;;4897778;29;20036;-67
2021/05/06 10:07:13;;;;;;;7.35;2.75;;;11.00;99.90;;;;;;4909490;29;20111;-67
2021/05/06 10:09:51;;;;;;;9.80;2.88;;;12.60;99.90;;;;;;4916595;29;20532;-68
2021/05/06 10:12:18;;;;;;;4.82;2.40;;;11.90;99.90;;;;;;4916314;29;20244;-67
2021/05/06 10:14:46;;;;;;;3.95;2.50;;;11.20;99.90;;;;;;4915832;29;20155;-67
2021/05/06 10:17:14;;;;;;;6.68;2.80;;;11.30;99.90;;;;;;4916111;29;20048;-66
2021/05/06 10:19:42;;;;;;;4.65;3.28;;;10.60;99.90;;;;;;4916154;29;20059;-66
2021/05/06 10:22:10;;;;;;;7.80;3.13;;;10.60;99.90;;;;;;4916260;29;20320;-67
2021/05/06 10:24:40;;;;;;;6.95;2.80;;;10.70;99.90;;;;;;4915736;29;20051;-66
2021/05/06 10:27:11;;;;;;;7.72;3.08;;;10.80;99.90;;;;;;4916159;29;20115;-67
2021/05/06 10:29:38;;;;;;;5.32;2.70;;;11.10;99.90;;;;;;4915625;29;20051;-66
2021/05/06 10:32:06;;;;;;;5.47;3.50;;;11.30;99.90;;;;;;4916057;29;20062;-66
2021/05/06 10:34:34;;;;;;;10.52;4.85;;;11.10;99.90;;;;;;4915963;29;20103;-67
2021/05/06 10:37:02;;;;;;;7.53;3.38;;;10.90;99.90;;;;;;4914895;29;20060;-67
2021/05/06 10:39:37;;;;;;;9.63;3.75;;;11.00;99.90;;;;;;4916029;29;20040;-67
2021/05/06 10:42:39;;;;;;;8.18;3.40;;;11.00;99.90;;;;;;4915639;29;20498;-67
2021/05/06 10:45:34;;;;;;;5.60;2.65;;;11.70;99.90;;;;;;4915870;29;20071;-66
2021/05/06 10:48:02;;;;;;;7.53;3.08;;;11.80;99.90;;;;;;4914893;29;20086;-67
2021/05/06 10:50:37;;;;;;;4.60;3.28;;;11.40;99.90;;;;;;4914017;29;20067;-67
2021/05/06 10:53:05;;;;;;;4.22;2.60;;;12.30;99.90;;;;;;4914755;29;20464;-66
2021/05/06 10:55:43;;;;;;;7.22;3.03;;;13.20;99.90;;;;;;4911652;29;20067;-68
2021/05/06 10:58:35;;;;;;;4.80;2.83;;;13.60;99.90;;;;;;4901765;29;20505;-68
2021/05/06 11:01:22;;;;;;;7.78;3.90;;;13.30;99.90;;;;;;4907158;29;20505;-68
2021/05/06 11:04:09;;;;;;;7.15;3.78;;;12.50;99.90;;;;;;4905297;29;20169;-67
2021/05/06 11:06:41;;;;;;;7.40;4.10;;;11.70;99.90;;;;;;4924565;23;20051;-75
2021/05/06 11:09:53;;;;;;;6.88;3.72;;;11.00;99.90;;;;;;4915453;29;20046;-74
2021/05/06 11:12:26;;;;;;;7.55;3.60;;;10.70;99.90;;;;;;4913618;29;20055;-75
2021/05/06 11:15:28;;;;;;;9.88;3.65;;;10.70;99.90;;;;;;4912056;29;20083;-75
2021/05/06 11:17:57;;;;;;;8.10;3.30;;;10.80;99.90;;;;;;4912835;29;20842;-75
2021/05/06 11:20:45;;;;;;;4.80;3.63;;;10.90;99.90;;;;;;4911343;29;20147;-76
2021/05/06 11:23:29;;;;;;;11.25;4.97;;;11.00;99.90;;;;;;4901232;29;20056;-73
2021/05/06 11:26:08;;;;;;;10.50;3.65;;;10.70;99.90;;;;;;4906856;29;20068;-72
2021/05/06 11:28:46;;;;;;;6.15;3.63;;;10.80;99.90;;;;;;4908713;29;20052;-75
2021/05/06 11:31:14;;;;;;;8.60;4.20;;;10.90;99.90;;;;;;4910404;29;20053;-76
2021/05/06 11:33:43;;;;;;;5.28;3.88;;;10.60;99.90;;;;;;4917178;29;20055;-77
2021/05/06 11:36:17;;;;;;;6.05;3.85;;;10.60;99.90;;;;;;4918321;29;20056;-77
2021/05/06 11:38:53;;;;;;;6.93;3.58;;;10.70;99.90;;;;;;4921389;29;20072;-77
2021/05/06 11:41:25;;;;;;;6.50;3.60;;;10.80;99.90;;;;;;4916556;29;20505;-76
2021/05/06 11:43:54;;;;;;;7.25;3.85;;;10.90;99.90;;;;;;4916978;29;20400;-75
2021/05/06 11:46:26;;;;;;;7.32;4.43;;;11.10;99.90;;;;;;4917147;29;20040;-77
2021/05/06 11:48:57;;;;;;;7.53;4.70;;;12.10;99.90;;;;;;4918168;29;20048;-77
2021/05/06 11:51:27;;;;;;;8.70;3.83;;;13.00;99.90;;;;;;4913677;29;20473;-78
2021/05/06 11:54:09;;;;;;;8.23;4.70;;;12.90;99.90;;;;;;4921685;29;20064;-77
2021/05/06 11:56:38;;;;;;;10.85;3.65;;;12.80;99.90;;;;;;4918600;29;20080;-75
2021/05/06 11:59:07;;;;;;;4.78;3.97;;;13.10;99.90;;;;;;4917389;29;20105;-75
2021/05/06 12:01:34;;;;;;;6.10;3.65;;;13.60;99.90;;;;;;4917839;29;20048;-78
2021/05/06 12:04:02;;;;;;;7.30;3.30;;;13.70;99.90;;;;;;4919530;29;20516;-77
2021/05/06 12:06:34;;;;;;;10.27;5.90;;;13.60;99.90;;;;;;4915848;29;20126;-77
2021/05/06 12:09:01;;;;;;;7.45;3.65;;;14.40;99.90;;;;;;4914064;29;20055;-77
2021/05/06 12:11:38;;;;;;;5.03;2.92;;;14.20;99.90;;;;;;4914165;29;20127;-74
2021/05/06 12:14:06;;;;;;;6.57;3.20;;;14.20;99.90;;;;;;4912717;29;20044;-77
2021/05/06 12:16:35;;;;;;;6.38;3.35;;;14.60;99.90;;;;;;4914216;29;20051;-77
2021/05/06 12:19:08;;;;;;;5.85;2.83;;;14.90;99.90;;;;;;4914635;29;20044;-76
2021/05/06 12:21:51;;;;;;;7.22;3.60;;;14.60;99.90;;;;;;4913055;29;20052;-78
2021/05/06 12:24:28;;;;;;;4.50;3.20;;;14.90;99.90;;;;;;4914876;29;20040;-78
2021/05/06 12:26:55;;;;;;;8.52;3.20;;;14.20;99.90;;;;;;4907358;29;20083;-81
2021/05/06 12:29:23;;;;;;;5.07;3.00;;;13.80;99.90;;;;;;4910474;29;20392;-75
2021/05/06 12:31:52;;;;;;;5.53;3.25;;;13.80;99.90;;;;;;4912806;29;20512;-76
2021/05/06 12:34:21;;;;;;;7.22;3.88;;;12.90;99.90;;;;;;4912829;29;20096;-75
2021/05/06 12:36:56;;;;;;;6.53;3.55;;;13.00;99.90;;;;;;4914248;29;20036;-76
2021/05/06 12:39:24;;;;;;;5.63;3.78;;;12.90;99.90;;;;;;4914649;29;20059;-77
2021/05/06 12:41:56;;;;;;;7.00;3.83;;;13.20;99.90;;;;;;4915316;29;20123;-76
2021/05/06 12:44:42;;;;;;;5.03;3.38;;;12.80;99.90;;;;;;4897088;29;20052;-77
2021/05/06 12:47:20;;;;;;;5.45;3.60;;;12.60;99.90;;;;;;4906127;29;20419;-76
2021/05/06 12:49:49;;;;;;;6.45;3.53;;;12.60;99.90;;;;;;4913702;29;20431;-76
2021/05/06 12:52:39;;;;;;;5.30;3.63;;;13.20;99.90;;;;;;4913452;29;20043;-77
2021/05/06 12:55:20;;;;;;;6.50;3.17;;;13.30;99.90;;;;;;4906522;29;20056;-76
2021/05/06 12:58:02;;;;;;;7.82;3.55;;;13.40;99.90;;;;;;4913876;29;20095;-76
2021/05/06 13:00:32;;;;;;;7.50;3.50;;;13.40;99.90;;;;;;4909653;29;20127;-75
2021/05/06 13:03:02;;;;;;;7.22;2.90;;;13.00;99.90;;;;;;4912605;29;20529;-76
2021/05/06 13:05:31;;;;;;;5.80;2.80;;;12.80;99.90;;;;;;4925636;29;20070;-76
2021/05/06 13:07:58;;;;;;;4.07;2.53;;;13.00;99.90;;;;;;4913012;29;20055;-75
2021/05/06 13:10:30;;;;;;;6.35;2.83;;;12.80;99.90;;;;;;4914849;29;20048;-75
2021/05/06 13:12:56;;;;;;;6.00;3.70;;;12.30;99.90;;;;;;4914032;29;20136;-77
2021/05/06 13:15:23;;;;;;;6.55;3.33;;;12.50;99.90;;;;;;4913568;29;20044;-76
2021/05/06 13:17:50;;;;;;;6.50;3.40;;;12.30;99.90;;;;;;4905216;29;20681;-76
2021/05/06 13:20:19;;;;;;;;;;;12.10;99.90;;;;;;4915316;29;20043;-77
2021/05/06 13:23:04;;;;;;;4.10;3.40;;;11.90;99.90;;;;;;4912527;29;20308;-77
2021/05/06 13:25:45;;;;;;;5.82;3.63;;;12.00;99.90;;;;;;4909679;29;20033;-76
2021/05/06 13:28:14;;;;;;;5.32;3.70;;;11.70;99.90;;;;;;4898370;29;20044;-75
2021/05/06 13:30:41;;;;;;;6.20;3.50;;;11.90;99.90;;;;;;4897107;29;20053;-76
2021/05/06 13:33:13;;;;;;;7.43;3.90;;;11.80;99.90;;;;;;4899914;29;20047;-76
2021/05/06 13:35:40;;;;;;;6.18;3.63;;;11.40;99.90;;;;;;4909405;29;20044;-77
2021/05/06 13:38:08;;;;;;;4.68;3.42;;;11.80;99.90;;;;;;4900166;29;20408;-76
2021/05/06 13:40:35;;;;;;;6.40;3.70;;;11.80;99.90;;;;;;4907309;29;20048;-76
2021/05/06 13:43:01;;;;;;;6.07;3.42;;;11.80;99.90;;;;;;4896938;29;20044;-77
2021/05/06 13:45:28;;;;;;;10.63;4.00;;;11.70;99.90;;;;;;4898516;29;20159;-75
2021/05/06 13:47:54;;;;;;;6.15;3.83;;;11.40;99.90;;;;;;4906620;29;20119;-76
2021/05/06 13:50:21;;;;;;;10.10;3.40;;;11.30;99.90;;;;;;4914028;29;20059;-76
2021/05/06 13:52:48;;;;;;;4.28;3.80;;;11.30;99.90;;;;;;4912600;29;20457;-75
2021/05/06 13:55:15;;;;;;;6.43;3.72;;;11.20;99.90;;;;;;4912800;29;20456;-76
2021/05/06 13:57:42;;;;;;;6.28;3.90;;;11.30;99.90;;;;;;4912258;29;20052;-75
2021/05/06 14:00:10;;;;;;;9.52;3.90;;;11.50;99.90;;;;;;4912821;29;20047;-75
2021/05/06 14:02:41;;;;;;;5.75;3.90;;;11.30;99.90;;;;;;4912899;29;20048;-77
2021/05/06 14:05:09;;;;;;;6.93;4.15;;;11.30;99.90;;;;;;4909367;29;20039;-77
2021/05/06 14:07:36;;;;;;;7.93;4.25;;;11.30;99.90;;;;;;4906583;29;20298;-77
2021/05/06 14:10:02;;;;;;;5.50;3.63;;;11.10;99.90;;;;;;4911630;29;20052;-76
2021/05/06 14:12:30;;;;;;;5.07;4.55;;;11.10;99.90;;;;;;4912904;29;20076;-75
2021/05/06 14:14:56;;;;;;;5.75;4.30;;;11.20;99.90;;;;;;4907271;29;20068;-78
2021/05/06 14:17:23;;;;;;;6.10;5.10;;;11.10;99.90;;;;;;4909390;29;20051;-77
2021/05/06 14:19:50;;;;;;;6.07;4.32;;;11.00;99.90;;;;;;4912315;29;20075;-77
2021/05/06 14:22:16;;;;;;;7.13;5.18;;;10.80;99.90;;;;;;4912129;29;20508;-76
2021/05/06 14:24:43;;;;;;;10.00;5.15;;;10.80;99.90;;;;;;4907632;29;20046;-76
2021/05/06 14:27:10;;;;;;;8.00;5.28;;;10.90;99.90;;;;;;4911004;29;20532;-78
2021/05/06 14:29:38;;;;;;;9.90;5.35;;;11.00;99.90;;;;;;4913185;29;20096;-79
2021/05/06 14:32:04;;;;;;;5.88;4.80;;;11.30;99.90;;;;;;4912613;29;20043;-76
2021/05/06 14:34:32;;;;;;;;;;;11.60;99.90;;;;;;4912452;29;20789;-77
2021/05/06 14:36:59;;;;;;;8.13;5.22;;;11.60;99.90;;;;;;4913209;29;19958;-77
2021/05/06 14:39:25;;;;;;;11.00;5.55;;;11.40;99.90;;;;;;4912588;29;20486;-77
2021/05/06 14:41:52;;;;;;;8.95;5.60;;;11.30;99.90;;;;;;4915169;29;20088;-76
2021/05/06 14:44:19;;;;;;;7.43;5.28;;;11.10;99.90;;;;;;4916498;29;20036;-76
2021/05/06 14:46:46;;;;;;;7.93;5.18;;;11.20;99.90;;;;;;4916396;29;20063;-77
2021/05/06 14:49:13;;;;;;;9.60;6.30;;;10.90;99.90;;;;;;4916226;29;20040;-77
2021/05/06 14:51:40;;;;;;;7.85;5.50;;;10.60;99.90;;;;;;4914586;29;20099;-76
2021/05/06 14:54:07;;;;;;;;;;;10.60;99.90;;;;;;4915229;29;20047;-76
2021/05/06 14:56:34;;;;;;;7.38;5.03;;;10.50;99.90;;;;;;4914743;29;19945;-77
2021/05/06 14:59:00;;;;;;;;;;;10.40;99.90;;;;;;4916413;29;20044;-76
2021/05/06 15:01:27;;;;;;;8.73;5.90;;;10.40;99.90;;;;;;4915858;29;19950;-76
2021/05/06 15:03:54;;;;;;;;;;;10.30;99.90;;;;;;4916680;29;20052;-77
2021/05/06 15:06:21;;;;;;;7.93;6.00;;;10.30;99.90;;;;;;4915398;29;20388;-77
2021/05/06 15:08:48;;;;;;;7.07;6.20;;;10.20;99.90;;;;;;4899928;29;20044;-74
2021/05/06 15:11:17;;;;;;;7.68;6.07;;;10.20;99.90;;;;;;4897026;29;20548;-76
2021/05/06 15:13:44;;;;;;;10.27;7.10;;;9.90;99.90;;;;;;4907104;29;20048;-76
2021/05/06 15:16:10;;;;;;;12.93;7.10;;;9.70;99.90;;;;;;4914063;29;20048;-77
2021/05/06 15:18:37;;;;;;;9.38;7.15;;;9.50;99.90;;;;;;4913356;29;20127;-75
2021/05/06 15:21:05;;;;;;;23.73;13.18;;;9.60;99.90;;;;;;4915081;29;20119;-75
2021/05/06 15:23:32;;;;;;;10.27;8.10;;;9.40;99.90;;;;;;4914511;29;20051;-76
2021/05/06 15:25:59;;;;;;;11.43;7.55;;;9.30;99.90;;;;;;4921428;29;20060;-77
2021/05/06 15:28:29;;;;;;;10.13;7.70;;;9.10;99.90;;;;;;4924808;29;20056;-77
2021/05/06 15:30:58;;;;;;;8.45;7.05;;;9.00;99.90;;;;;;4906053;29;20163;-78
2021/05/06 15:33:36;;;;;;;9.48;7.20;;;9.00;99.90;;;;;;4916719;29;20060;-78
2021/05/06 15:36:07;;;;;;;12.07;8.07;;;8.90;99.90;;;;;;4916803;29;20595;-78
2021/05/06 15:38:39;;;;;;;11.32;7.60;;;8.80;99.90;;;;;;4917326;29;20131;-78
2021/05/06 15:41:09;;;;;;;13.02;8.52;;;8.70;99.90;;;;;;4930301;29;20044;-78
2021/05/06 15:43:40;;;;;;;14.43;9.20;;;8.60;99.90;;;;;;4906082;29;20131;-77
2021/05/06 15:46:11;;;;;;;11.98;8.35;;;8.70;99.90;;;;;;4914225;29;20044;-77
2021/05/06 15:48:39;;;;;;;14.02;9.65;;;8.70;99.90;;;;;;4908535;29;20050;-77
2021/05/06 15:51:06;;;;;;;12.80;9.68;;;8.70;99.90;;;;;;4915850;29;20067;-76
2021/05/06 15:53:33;;;;;;;12.60;10.07;;;8.60;99.90;;;;;;4910338;29;20112;-72
2021/05/06 15:56:00;;;;;;;10.85;9.65;;;8.50;99.90;;;;;;4915767;29;20723;-75
2021/05/06 15:58:26;;;;;;;;;;;8.40;99.90;;;;;;4917081;29;20525;-77
2021/05/06 16:00:56;;;;;;;17.20;10.50;;;8.30;99.90;;;;;;4915766;29;20334;-77
2021/05/06 16:03:25;;;;;;;15.25;11.25;;;8.40;99.90;;;;;;4913898;29;20153;-77
2021/05/06 16:05:53;;;;;;;15.80;12.60;;;8.30;99.90;;;;;;4919022;29;20039;-77
2021/05/06 16:08:21;;;;;;;20.23;13.40;;;8.20;99.90;;;;;;4919299;29;20048;-77
2021/05/06 16:10:51;;;;;;;16.45;12.35;;;8.20;99.90;;;;;;4925555;29;20075;-75
2021/05/06 16:13:19;;;;;;;20.77;13.20;;;8.20;99.90;;;;;;4916067;29;20088;-76
2021/05/06 16:15:48;;;;;;;18.48;13.27;;;8.20;99.90;;;;;;4915325;29;20143;-76
2021/05/06 16:18:14;;;;;;;20.40;14.32;;;8.10;99.90;;;;;;4914385;29;20040;-75
2021/05/06 16:20:41;;;;;;;;;;;8.20;99.90;;;;;;4914769;29;20048;-77
2021/05/06 16:23:09;;;;;;;17.95;14.15;;;8.00;99.90;;;;;;4915671;29;19923;-77
2021/05/06 16:25:40;;;;;;;19.40;13.77;;;8.00;99.90;;;;;;4914859;29;20040;-77
2021/05/06 16:28:09;;;;;;;20.75;14.27;;;8.00;99.90;;;;;;4916286;29;20111;-75
2021/05/06 16:30:36;;;;;;;23.20;13.95;;;8.00;99.90;;;;;;4922709;29;20056;-76
2021/05/06 16:33:06;;;;;;;20.88;13.23;;;8.00;99.90;;;;;;4917456;29;20032;-74
2021/05/06 16:35:37;;;;;;;15.88;13.23;;;8.10;99.90;;;;;;4913327;29;20516;-73
2021/05/06 16:38:06;;;;;;;17.73;14.00;;;8.10;99.90;;;;;;4910933;29;20054;-74
2021/05/06 16:40:37;;;;;;;20.08;12.60;;;8.10;99.90;;;;;;4910432;29;20120;-73
2021/05/06 16:43:27;;;;;;;16.98;13.75;;;8.00;99.90;;;;;;4913992;29;20048;-73
2021/05/06 16:45:55;;;;;;;16.98;11.52;;;8.00;99.90;;;;;;4913106;29;20040;-73
2021/05/06 16:48:21;;;;;;;18.88;12.65;;;8.10;99.90;;;;;;4913759;29;20063;-73
2021/05/06 16:50:48;;;;;;;16.98;11.23;;;8.00;99.90;;;;;;4915448;29;20080;-72
2021/05/06 16:53:15;;;;;;;18.67;12.18;;;8.10;99.90;;;;;;4911126;29;20274;-72
2021/05/06 16:55:42;;;;;;;16.63;11.85;;;8.10;99.90;;;;;;4910481;29;20037;-72
2021/05/06 16:58:10;;;;;;;18.52;13.23;;;8.00;99.90;;;;;;4912702;29;20036;-73
2021/05/06 17:00:38;;;;;;;21.63;11.68;;;8.00;99.90;;;;;;4898943;29;20052;-73
2021/05/06 17:03:05;;;;;;;18.27;12.07;;;8.00;99.90;;;;;;4899217;29;20445;-73
2021/05/06 17:05:32;;;;;;;16.25;10.95;;;7.90;99.90;;;;;;4903499;29;20044;-73
2021/05/06 17:07:59;;;;;;;18.65;11.32;;;7.90;99.90;;;;;;4896543;29;20045;-73
2021/05/06 17:10:26;;;;;;;;;;;8.00;99.90;;;;;;4901061;29;20070;-73
2021/05/06 17:12:53;;;;;;;13.65;11.15;;;8.00;99.90;;;;;;4914515;29;20376;-73
2021/05/06 17:15:22;;;;;;;14.82;10.38;;;7.80;99.90;;;;;;4914169;29;20048;-74
2021/05/06 17:17:49;;;;;;;15.50;10.77;;;7.70;99.90;;;;;;4914950;29;20481;-72
2021/05/06 17:20:16;;;;;;;13.27;10.90;;;7.70;99.90;;;;;;4913648;29;20048;-73
2021/05/06 17:22:44;;;;;;;18.73;12.13;;;7.60;99.90;;;;;;4912890;29;20442;-73
2021/05/06 17:25:13;;;;;;;13.57;12.15;;;7.50;99.90;;;;;;4920402;29;20052;-73
2021/05/06 17:27:40;;;;;;;12.68;10.90;;;7.60;99.90;;;;;;4912982;29;20044;-73
2021/05/06 17:30:10;;;;;;;19.15;11.25;;;7.80;99.90;;;;;;4913333;29;20059;-74
2021/05/06 17:32:39;;;;;;;15.98;10.80;;;7.90;99.90;;;;;;4914597;29;20127;-73
2021/05/06 17:35:09;;;;;;;19.35;11.07;;;7.90;99.90;;;;;;4914167;29;20052;-73
2021/05/06 17:37:37;;;;;;;14.60;9.27;;;8.00;99.90;;;;;;4913298;29;20044;-74
2021/05/06 17:40:08;;;;;;;15.40;11.45;;;7.90;99.90;;;;;;4912602;29;20139;-74
2021/05/06 17:42:35;;;;;;;13.70;9.60;;;8.00;99.90;;;;;;4914518;29;20415;-73
2021/05/06 17:45:02;;;;;;;12.85;7.95;;;7.90;99.90;;;;;;4914258;29;20296;-73
2021/05/06 17:47:30;;;;;;;8.40;5.65;;;7.90;99.90;;;;;;4912576;29;20568;-72
2021/05/06 17:49:57;;;;;;;6.30;5.55;;;7.90;99.90;;;;;;4914401;29;20054;-72
2021/05/06 17:52:24;;;;;;;7.55;6.35;;;7.80;99.90;;;;;;4913307;29;20511;-72
2021/05/06 17:54:51;;;;;;;9.18;6.68;;;7.90;99.90;;;;;;4913977;29;20524;-72
2021/05/06 17:57:18;;;;;;;10.25;7.00;;;7.90;99.90;;;;;;4913731;29;20416;-71
2021/05/06 17:59:44;;;;;;;;;;;7.90;99.90;;;;;;4914949;29;20051;-72
2021/05/06 18:02:11;;;;;;;7.63;6.82;;;7.80;99.90;;;;;;4912248;29;19926;-72
2021/05/06 18:04:39;;;;;;;12.38;8.02;;;7.80;99.90;;;;;;4929975;29;20028;-72
2021/05/06 18:07:07;;;;;;;14.32;8.18;;;7.80;99.90;;;;;;4928538;29;20143;-72
2021/05/06 18:09:37;;;;;;;12.65;8.55;;;7.80;99.90;;;;;;4916061;29;20101;-71
2021/05/06 18:12:08;;;;;;;13.77;8.27;;;7.80;99.90;;;;;;4932134;29;20156;-72
2021/05/06 18:14:35;;;;;;;12.60;7.72;;;7.80;99.90;;;;;;4934107;29;20072;-72
2021/05/06 18:17:03;;;;;;;11.32;7.05;;;7.80;99.90;;;;;;4935966;29;20047;-72
2021/05/06 18:19:30;;;;;;;10.30;6.30;;;7.70;99.90;;;;;;4915922;29;20114;-72
2021/05/06 18:21:58;;;;;;;10.32;7.13;;;7.80;99.90;;;;;;4914484;29;20044;-72
2021/05/06 18:24:26;;;;;;;10.80;7.35;;;7.70;99.90;;;;;;4917896;29;20056;-72
2021/05/06 18:26:55;;;;;;;9.32;6.75;;;7.60;99.90;;;;;;4918319;29;20131;-73